sensor_id;sensor_type;location;lat;lon;timestamp;pressure;altitude;pressure_sealevel;temperature;humidity
3122;BME280;1571;52.524;14.104;2023-02-15T00:00:09;102705.97;;;-1.95;100.00
3122;BME280;1571;52.524;14.104;2023-02-15T00:02:38;102707.69;;;-1.96;100.00
3122;BME280;1571;52.524;14.104;2023-02-15T00:05:08;102705.19;;;-1.91;100.00
3122;BME280;1571;52.524;14.104;2023-02-15T00:07:36;102699.94;;;-1.93;100.00
3122;BME280;1571;52.524;14.104;2023-02-15T00:10:05;102702.41;;;-2.00;100.00
3122;BME280;1571;52.524;14.104;2023-02-15T00:12:35;102704.72;;;-2.13;100.00
3122;BME280;1571;52.524;14.104;2023-02-15T00:15:04;102701.09;;;-2.19;100.00
3122;BME280;1571;52.524;14.104;2023-02-15T00:17:32;102711.91;;;-2.02;100.00
3122;BME280;1571;52.524;14.104;2023-02-15T00:20:01;102708.13;;;-2.15;100.00
3122;BME280;1571;52.524;14.104;2023-02-15T00:22:29;102702.28;;;-2.05;100.00
3122;BME280;1571;52.524;14.104;2023-02-15T00:24:57;102708.34;;;-2.06;100.00
3122;BME280;1571;52.524;14.104;2023-02-15T00:27:25;102703.91;;;-2.10;100.00
3122;BME280;1571;52.524;14.104;2023-02-15T00:29:55;102697.78;;;-2.14;100.00
3122;BME280;1571;52.524;14.104;2023-02-15T00:32:24;102690.75;;;-2.18;100.00
3122;BME280;1571;52.524;14.104;2023-02-15T00:34:52;102693.19;;;-2.24;100.00
3122;BME280;1571;52.524;14.104;2023-02-15T00:37:20;102688.09;;;-2.19;100.00
3122;BME280;1571;52.524;14.104;2023-02-15T00:39:48;102696.63;;;-2.26;100.00
3122;BME280;1571;52.524;14.104;2023-02-15T00:42:17;102692.34;;;-2.24;100.00
3122;BME280;1571;52.524;14.104;2023-02-15T00:44:45;102687.09;;;-2.26;100.00
3122;BME280;1571;52.524;14.104;2023-02-15T00:47:14;102685.31;;;-2.28;100.00
3122;BME280;1571;52.524;14.104;2023-02-15T00:49:43;102684.38;;;-2.31;100.00
3122;BME280;1571;52.524;14.104;2023-02-15T00:52:11;102681.72;;;-2.32;100.00
3122;BME280;1571;52.524;14.104;2023-02-15T00:54:40;102671.13;;;-2.43;100.00
3122;BME280;1571;52.524;14.104;2023-02-15T00:57:08;102667.66;;;-2.42;100.00
3122;BME280;1571;52.524;14.104;2023-02-15T00:59:36;102656.34;;;-2.44;100.00
3122;BME280;1571;52.524;14.104;2023-02-15T01:02:04;102648.00;;;-2.27;100.00
3122;BME280;1571;52.524;14.104;2023-02-15T01:04:34;102648.84;;;-2.30;100.00
3122;BME280;1571;52.524;14.104;2023-02-15T01:07:02;102640.88;;;-2.38;100.00
3122;BME280;1571;52.524;14.104;2023-02-15T01:09:32;102651.22;;;-2.41;100.00
3122;BME280;1571;52.524;14.104;2023-02-15T01:12:02;102651.00;;;-2.50;100.00
3122;BME280;1571;52.524;14.104;2023-02-15T01:14:31;102651.75;;;-2.56;100.00
3122;BME280;1571;52.524;14.104;2023-02-15T01:16:59;102651.28;;;-2.38;100.00
3122;BME280;1571;52.524;14.104;2023-02-15T01:19:27;102655.53;;;-2.81;100.00
3122;BME280;1571;52.524;14.104;2023-02-15T01:21:57;102655.25;;;-2.91;100.00
3122;BME280;1571;52.524;14.104;2023-02-15T01:24:25;102656.00;;;-2.59;100.00
3122;BME280;1571;52.524;14.104;2023-02-15T01:26:53;102652.06;;;-2.42;100.00
3122;BME280;1571;52.524;14.104;2023-02-15T01:29:23;102653.69;;;-2.47;100.00
3122;BME280;1571;52.524;14.104;2023-02-15T01:31:51;102652.78;;;-2.49;100.00
3122;BME280;1571;52.524;14.104;2023-02-15T01:34:19;102655.28;;;-2.54;100.00
3122;BME280;1571;52.524;14.104;2023-02-15T01:36:47;102653.63;;;-2.48;100.00
3122;BME280;1571;52.524;14.104;2023-02-15T01:39:17;102654.31;;;-2.57;100.00
3122;BME280;1571;52.524;14.104;2023-02-15T01:41:45;102641.34;;;-2.56;100.00
3122;BME280;1571;52.524;14.104;2023-02-15T01:44:45;102638.59;;;-2.63;100.00
3122;BME280;1571;52.524;14.104;2023-02-15T01:47:16;102628.28;;;-2.59;100.00
3122;BME280;1571;52.524;14.104;2023-02-15T01:49:46;102635.34;;;-2.53;100.00
3122;BME280;1571;52.524;14.104;2023-02-15T01:52:17;102631.81;;;-2.55;100.00
3122;BME280;1571;52.524;14.104;2023-02-15T01:54:47;102627.09;;;-2.73;100.00
3122;BME280;1571;52.524;14.104;2023-02-15T01:57:19;102621.94;;;-2.72;100.00
3122;BME280;1571;52.524;14.104;2023-02-15T01:59:55;102616.69;;;-2.75;100.00
3122;BME280;1571;52.524;14.104;2023-02-15T02:02:24;102619.84;;;-2.86;100.00
3122;BME280;1571;52.524;14.104;2023-02-15T02:04:57;102621.72;;;-2.81;100.00
3122;BME280;1571;52.524;14.104;2023-02-15T02:07:27;102619.63;;;-2.96;100.00
3122;BME280;1571;52.524;14.104;2023-02-15T02:10:00;102617.91;;;-2.95;100.00
3122;BME280;1571;52.524;14.104;2023-02-15T02:12:34;102619.63;;;-2.96;100.00
3122;BME280;1571;52.524;14.104;2023-02-15T02:15:04;102620.03;;;-2.79;100.00
3122;BME280;1571;52.524;14.104;2023-02-15T02:17:40;102612.31;;;-2.76;100.00
3122;BME280;1571;52.524;14.104;2023-02-15T02:20:31;102612.91;;;-3.24;100.00
3122;BME280;1571;52.524;14.104;2023-02-15T02:23:16;102611.94;;;-2.91;100.00
3122;BME280;1571;52.524;14.104;2023-02-15T02:29:37;102608.59;;;-2.87;100.00
3122;BME280;1571;52.524;14.104;2023-02-15T02:32:34;102599.88;;;-2.89;100.00
3122;BME280;1571;52.524;14.104;2023-02-15T02:35:08;102593.13;;;-2.81;100.00
3122;BME280;1571;52.524;14.104;2023-02-15T02:37:48;102590.53;;;-2.81;100.00
3122;BME280;1571;52.524;14.104;2023-02-15T02:40:24;102591.88;;;-2.98;100.00
3122;BME280;1571;52.524;14.104;2023-02-15T02:42:59;102597.09;;;-2.97;100.00
3122;BME280;1571;52.524;14.104;2023-02-15T02:45:31;102585.59;;;-3.06;100.00
3122;BME280;1571;52.524;14.104;2023-02-15T02:48:04;102575.50;;;-2.94;100.00
3122;BME280;1571;52.524;14.104;2023-02-15T02:50:39;102573.41;;;-2.71;100.00
3122;BME280;1571;52.524;14.104;2023-02-15T02:53:09;102577.78;;;-2.70;100.00
3122;BME280;1571;52.524;14.104;2023-02-15T02:55:41;102567.28;;;-2.73;100.00
3122;BME280;1571;52.524;14.104;2023-02-15T02:58:15;102573.53;;;-2.65;100.00
3122;BME280;1571;52.524;14.104;2023-02-15T03:00:48;102569.06;;;-2.70;100.00
3122;BME280;1571;52.524;14.104;2023-02-15T03:03:21;102560.50;;;-2.66;100.00
3122;BME280;1571;52.524;14.104;2023-02-15T03:05:57;102557.75;;;-2.73;100.00
3122;BME280;1571;52.524;14.104;2023-02-15T03:08:32;102560.31;;;-2.76;100.00
3122;BME280;1571;52.524;14.104;2023-02-15T03:11:03;102562.66;;;-2.88;100.00
3122;BME280;1571;52.524;14.104;2023-02-15T03:13:32;102570.44;;;-2.88;100.00
3122;BME280;1571;52.524;14.104;2023-02-15T03:16:03;102570.44;;;-2.88;100.00
3122;BME280;1571;52.524;14.104;2023-02-15T03:18:53;102579.25;;;-2.81;100.00
3122;BME280;1571;52.524;14.104;2023-02-15T03:21:34;102563.88;;;-2.70;100.00
3122;BME280;1571;52.524;14.104;2023-02-15T03:24:09;102566.25;;;-2.81;100.00
3122;BME280;1571;52.524;14.104;2023-02-15T03:26:43;102570.56;;;-2.82;100.00
3122;BME280;1571;52.524;14.104;2023-02-15T03:29:15;102569.53;;;-2.88;100.00
3122;BME280;1571;52.524;14.104;2023-02-15T03:31:46;102553.47;;;-2.72;100.00
3122;BME280;1571;52.524;14.104;2023-02-15T03:34:17;102567.91;;;-2.85;100.00
3122;BME280;1571;52.524;14.104;2023-02-15T03:36:50;102558.78;;;-3.05;100.00
3122;BME280;1571;52.524;14.104;2023-02-15T03:39:29;102555.97;;;-3.15;100.00
3122;BME280;1571;52.524;14.104;2023-02-15T03:42:06;102554.41;;;-3.06;100.00
3122;BME280;1571;52.524;14.104;2023-02-15T03:44:45;102560.63;;;-3.00;100.00
3122;BME280;1571;52.524;14.104;2023-02-15T03:47:17;102547.81;;;-2.92;100.00
3122;BME280;1571;52.524;14.104;2023-02-15T03:49:51;102555.38;;;-3.03;100.00
3122;BME280;1571;52.524;14.104;2023-02-15T03:52:25;102544.72;;;-3.15;100.00
3122;BME280;1571;52.524;14.104;2023-02-15T03:54:54;102550.69;;;-3.19;100.00
3122;BME280;1571;52.524;14.104;2023-02-15T03:57:25;102547.06;;;-3.24;100.00
3122;BME280;1571;52.524;14.104;2023-02-15T04:00:14;102544.34;;;-3.30;100.00
3122;BME280;1571;52.524;14.104;2023-02-15T04:03:22;102533.66;;;-3.43;100.00
3122;BME280;1571;52.524;14.104;2023-02-15T04:05:54;102542.09;;;-3.51;100.00
3122;BME280;1571;52.524;14.104;2023-02-15T04:08:23;102541.72;;;-3.32;100.00
3122;BME280;1571;52.524;14.104;2023-02-15T04:11:12;102531.63;;;-3.20;100.00
3122;BME280;1571;52.524;14.104;2023-02-15T04:13:39;102527.19;;;-3.24;100.00
3122;BME280;1571;52.524;14.104;2023-02-15T04:16:07;102527.00;;;-3.31;100.00
3122;BME280;1571;52.524;14.104;2023-02-15T04:18:39;102529.59;;;-3.33;100.00
3122;BME280;1571;52.524;14.104;2023-02-15T04:21:27;102521.31;;;-3.51;100.00
3122;BME280;1571;52.524;14.104;2023-02-15T04:24:15;102531.53;;;-3.59;100.00
3122;BME280;1571;52.524;14.104;2023-02-15T04:27:02;102528.28;;;-3.85;100.00
3122;BME280;1571;52.524;14.104;2023-02-15T04:29:31;102518.13;;;-3.76;100.00
3122;BME280;1571;52.524;14.104;2023-02-15T04:32:00;102517.94;;;-3.49;100.00
3122;BME280;1571;52.524;14.104;2023-02-15T04:34:29;102526.63;;;-3.47;100.00
3122;BME280;1571;52.524;14.104;2023-02-15T04:36:57;102516.13;;;-3.51;100.00
3122;BME280;1571;52.524;14.104;2023-02-15T04:39:27;102510.19;;;-3.47;100.00
3122;BME280;1571;52.524;14.104;2023-02-15T04:41:55;102507.78;;;-3.38;100.00
3122;BME280;1571;52.524;14.104;2023-02-15T04:44:23;102511.47;;;-3.65;100.00
3122;BME280;1571;52.524;14.104;2023-02-15T04:46:51;102502.28;;;-3.52;100.00
3122;BME280;1571;52.524;14.104;2023-02-15T04:49:20;102500.44;;;-3.58;100.00
3122;BME280;1571;52.524;14.104;2023-02-15T04:51:49;102503.94;;;-3.90;100.00
3122;BME280;1571;52.524;14.104;2023-02-15T04:54:17;102501.47;;;-3.49;100.00
3122;BME280;1571;52.524;14.104;2023-02-15T04:56:47;102498.25;;;-3.39;100.00
3122;BME280;1571;52.524;14.104;2023-02-15T04:59:15;102491.25;;;-3.43;100.00
3122;BME280;1571;52.524;14.104;2023-02-15T05:01:43;102482.25;;;-3.58;100.00
3122;BME280;1571;52.524;14.104;2023-02-15T05:04:12;102487.00;;;-3.40;100.00
3122;BME280;1571;52.524;14.104;2023-02-15T05:06:40;102487.28;;;-3.64;100.00
3122;BME280;1571;52.524;14.104;2023-02-15T05:09:10;102472.09;;;-3.48;100.00
3122;BME280;1571;52.524;14.104;2023-02-15T05:11:38;102482.69;;;-3.39;100.00
3122;BME280;1571;52.524;14.104;2023-02-15T05:14:08;102477.19;;;-3.51;100.00
3122;BME280;1571;52.524;14.104;2023-02-15T05:16:37;102478.09;;;-3.49;100.00
3122;BME280;1571;52.524;14.104;2023-02-15T05:19:05;102464.75;;;-3.65;100.00
3122;BME280;1571;52.524;14.104;2023-02-15T05:21:34;102469.72;;;-3.74;100.00
3122;BME280;1571;52.524;14.104;2023-02-15T05:24:03;102462.06;;;-3.69;100.00
3122;BME280;1571;52.524;14.104;2023-02-15T05:26:51;102462.63;;;-3.81;100.00
3122;BME280;1571;52.524;14.104;2023-02-15T05:29:38;102460.59;;;-3.94;100.00
3122;BME280;1571;52.524;14.104;2023-02-15T05:32:06;102464.63;;;-3.71;100.00
3122;BME280;1571;52.524;14.104;2023-02-15T05:34:35;102461.94;;;-3.75;100.00
3122;BME280;1571;52.524;14.104;2023-02-15T05:37:03;102455.72;;;-3.82;100.00
3122;BME280;1571;52.524;14.104;2023-02-15T05:39:31;102456.66;;;-3.79;100.00
3122;BME280;1571;52.524;14.104;2023-02-15T05:42:00;102445.59;;;-3.70;100.00
3122;BME280;1571;52.524;14.104;2023-02-15T05:44:28;102444.78;;;-3.69;100.00
3122;BME280;1571;52.524;14.104;2023-02-15T05:46:58;102444.59;;;-3.77;100.00
3122;BME280;1571;52.524;14.104;2023-02-15T05:49:26;102445.72;;;-4.02;100.00
3122;BME280;1571;52.524;14.104;2023-02-15T05:51:55;102437.13;;;-4.32;100.00
3122;BME280;1571;52.524;14.104;2023-02-15T05:54:23;102441.16;;;-4.12;100.00
3122;BME280;1571;52.524;14.104;2023-02-15T05:56:51;102446.34;;;-4.12;100.00
3122;BME280;1571;52.524;14.104;2023-02-15T05:59:19;102442.19;;;-4.04;100.00
3122;BME280;1571;52.524;14.104;2023-02-15T06:01:47;102438.88;;;-3.98;100.00
3122;BME280;1571;52.524;14.104;2023-02-15T06:04:17;102436.34;;;-3.60;100.00
3122;BME280;1571;52.524;14.104;2023-02-15T06:06:46;102438.69;;;-3.71;100.00
3122;BME280;1571;52.524;14.104;2023-02-15T06:09:14;102444.75;;;-3.70;100.00
3122;BME280;1571;52.524;14.104;2023-02-15T06:11:45;102439.59;;;-3.69;100.00
3122;BME280;1571;52.524;14.104;2023-02-15T06:14:13;102440.03;;;-3.85;100.00
3122;BME280;1571;52.524;14.104;2023-02-15T06:16:42;102441.66;;;-3.90;100.00
3122;BME280;1571;52.524;14.104;2023-02-15T06:19:11;102430.41;;;-3.91;100.00
3122;BME280;1571;52.524;14.104;2023-02-15T06:21:41;102431.59;;;-3.78;100.00
3122;BME280;1571;52.524;14.104;2023-02-15T06:24:09;102431.50;;;-3.81;100.00
3122;BME280;1571;52.524;14.104;2023-02-15T06:26:38;102435.78;;;-3.83;100.00
3122;BME280;1571;52.524;14.104;2023-02-15T06:29:06;102436.78;;;-3.78;100.00
3122;BME280;1571;52.524;14.104;2023-02-15T06:31:34;102426.41;;;-3.78;100.00
3122;BME280;1571;52.524;14.104;2023-02-15T06:34:02;102426.25;;;-3.84;100.00
3122;BME280;1571;52.524;14.104;2023-02-15T06:36:31;102415.72;;;-3.90;100.00
3122;BME280;1571;52.524;14.104;2023-02-15T06:39:01;102423.75;;;-4.16;100.00
3122;BME280;1571;52.524;14.104;2023-02-15T06:41:30;102423.81;;;-3.78;100.00
3122;BME280;1571;52.524;14.104;2023-02-15T06:43:58;102423.97;;;-3.70;100.00
3122;BME280;1571;52.524;14.104;2023-02-15T06:46:28;102418.72;;;-3.73;100.00
3122;BME280;1571;52.524;14.104;2023-02-15T06:48:56;102423.09;;;-3.71;100.00
3122;BME280;1571;52.524;14.104;2023-02-15T06:51:24;102417.50;;;-3.50;100.00
3122;BME280;1571;52.524;14.104;2023-02-15T06:53:52;102424.34;;;-3.53;100.00
3122;BME280;1571;52.524;14.104;2023-02-15T06:56:22;102421.16;;;-3.42;100.00
3122;BME280;1571;52.524;14.104;2023-02-15T06:58:50;102422.19;;;-3.35;100.00
3122;BME280;1571;52.524;14.104;2023-02-15T07:01:19;102412.13;;;-3.20;100.00
3122;BME280;1571;52.524;14.104;2023-02-15T07:03:47;102406.13;;;-3.16;100.00
3122;BME280;1571;52.524;14.104;2023-02-15T07:06:16;102401.84;;;-3.14;100.00
3122;BME280;1571;52.524;14.104;2023-02-15T07:08:44;102396.78;;;-3.07;100.00
3122;BME280;1571;52.524;14.104;2023-02-15T07:11:12;102398.59;;;-3.03;100.00
3122;BME280;1571;52.524;14.104;2023-02-15T07:13:59;102394.25;;;-3.03;100.00
3122;BME280;1571;52.524;14.104;2023-02-15T07:16:27;102401.59;;;-2.82;100.00
3122;BME280;1571;52.524;14.104;2023-02-15T07:18:56;102399.91;;;-2.81;100.00
3122;BME280;1571;52.524;14.104;2023-02-15T07:21:24;102397.84;;;-2.52;100.00
3122;BME280;1571;52.524;14.104;2023-02-15T07:23:55;102389.34;;;-2.42;100.00
3122;BME280;1571;52.524;14.104;2023-02-15T07:26:24;102397.03;;;-2.49;100.00
3122;BME280;1571;52.524;14.104;2023-02-15T07:28:52;102388.50;;;-2.39;100.00
3122;BME280;1571;52.524;14.104;2023-02-15T07:31:22;102382.72;;;-2.24;100.00
3122;BME280;1571;52.524;14.104;2023-02-15T07:33:50;102374.44;;;-1.99;100.00
3122;BME280;1571;52.524;14.104;2023-02-15T07:36:18;102378.03;;;-1.91;100.00
3122;BME280;1571;52.524;14.104;2023-02-15T07:38:46;102376.56;;;-1.73;100.00
3122;BME280;1571;52.524;14.104;2023-02-15T07:41:15;102381.00;;;-1.66;100.00
3122;BME280;1571;52.524;14.104;2023-02-15T07:43:45;102369.22;;;-1.38;100.00
3122;BME280;1571;52.524;14.104;2023-02-15T07:46:15;102371.97;;;-1.27;100.00
3122;BME280;1571;52.524;14.104;2023-02-15T07:48:46;102381.66;;;-1.15;100.00
3122;BME280;1571;52.524;14.104;2023-02-15T07:51:14;102368.78;;;-1.01;100.00
3122;BME280;1571;52.524;14.104;2023-02-15T07:53:43;102380.13;;;-1.01;100.00
3122;BME280;1571;52.524;14.104;2023-02-15T07:56:12;102369.91;;;-0.79;100.00
3122;BME280;1571;52.524;14.104;2023-02-15T07:58:41;102369.97;;;-0.76;100.00
3122;BME280;1571;52.524;14.104;2023-02-15T08:01:21;102369.81;;;-0.89;100.00
3122;BME280;1571;52.524;14.104;2023-02-15T08:03:51;102362.19;;;-0.72;100.00
3122;BME280;1571;52.524;14.104;2023-02-15T08:06:21;102363.03;;;-0.71;100.00
3122;BME280;1571;52.524;14.104;2023-02-15T08:08:50;102355.19;;;-0.73;100.00
3122;BME280;1571;52.524;14.104;2023-02-15T08:11:19;102350.19;;;-0.51;100.00
3122;BME280;1571;52.524;14.104;2023-02-15T08:13:57;102358.72;;;-0.68;100.00
3122;BME280;1571;52.524;14.104;2023-02-15T08:16:29;102351.13;;;-0.43;100.00
3122;BME280;1571;52.524;14.104;2023-02-15T08:19:01;102347.91;;;-0.13;100.00
3122;BME280;1571;52.524;14.104;2023-02-15T08:21:31;102347.59;;;-0.48;100.00
3122;BME280;1571;52.524;14.104;2023-02-15T08:24:01;102340.66;;;-0.46;100.00
3122;BME280;1571;52.524;14.104;2023-02-15T08:26:30;102337.31;;;-0.30;100.00
3122;BME280;1571;52.524;14.104;2023-02-15T08:28:59;102333.00;;;-0.28;100.00
3122;BME280;1571;52.524;14.104;2023-02-15T08:31:28;102334.03;;;-0.09;100.00
3122;BME280;1571;52.524;14.104;2023-02-15T08:33:57;102337.53;;;-0.01;100.00
3122;BME280;1571;52.524;14.104;2023-02-15T08:36:28;102333.13;;;-0.09;100.00
3122;BME280;1571;52.524;14.104;2023-02-15T08:38:57;102335.00;;;0.07;100.00
3122;BME280;1571;52.524;14.104;2023-02-15T08:41:27;102320.31;;;0.31;100.00
3122;BME280;1571;52.524;14.104;2023-02-15T08:43:58;102324.75;;;0.47;100.00
3122;BME280;1571;52.524;14.104;2023-02-15T08:46:28;102323.06;;;0.52;100.00
3122;BME280;1571;52.524;14.104;2023-02-15T08:48:57;102328.13;;;0.25;100.00
3122;BME280;1571;52.524;14.104;2023-02-15T08:51:28;102333.22;;;0.00;100.00
3122;BME280;1571;52.524;14.104;2023-02-15T08:53:58;102325.66;;;0.51;100.00
3122;BME280;1571;52.524;14.104;2023-02-15T08:56:28;102327.44;;;0.59;100.00
3122;BME280;1571;52.524;14.104;2023-02-15T08:58:57;102329.22;;;0.73;100.00
3122;BME280;1571;52.524;14.104;2023-02-15T09:01:27;102326.56;;;0.59;100.00
3122;BME280;1571;52.524;14.104;2023-02-15T09:03:58;102327.53;;;0.92;100.00
3122;BME280;1571;52.524;14.104;2023-02-15T09:06:28;102323.22;;;1.17;100.00
3122;BME280;1571;52.524;14.104;2023-02-15T09:08:57;102321.53;;;1.27;100.00
3122;BME280;1571;52.524;14.104;2023-02-15T09:11:27;102309.28;;;1.15;100.00
3122;BME280;1571;52.524;14.104;2023-02-15T09:13:56;102311.94;;;1.22;100.00
3122;BME280;1571;52.524;14.104;2023-02-15T09:16:26;102303.09;;;0.80;100.00
3122;BME280;1571;52.524;14.104;2023-02-15T09:18:55;102302.34;;;1.20;100.00
3122;BME280;1571;52.524;14.104;2023-02-15T09:21:25;102297.06;;;1.04;100.00
3122;BME280;1571;52.524;14.104;2023-02-15T09:23:57;102295.34;;;1.30;100.00
3122;BME280;1571;52.524;14.104;2023-02-15T09:26:28;102295.34;;;1.34;100.00
3122;BME280;1571;52.524;14.104;2023-02-15T09:28:58;102295.34;;;1.62;100.00
3122;BME280;1571;52.524;14.104;2023-02-15T09:31:29;102292.75;;;1.60;100.00
3122;BME280;1571;52.524;14.104;2023-02-15T09:33:59;102288.38;;;1.39;100.00
3122;BME280;1571;52.524;14.104;2023-02-15T09:36:30;102287.50;;;1.62;100.00
3122;BME280;1571;52.524;14.104;2023-02-15T09:39:03;102288.38;;;1.72;100.00
3122;BME280;1571;52.524;14.104;2023-02-15T09:44:37;102287.47;;;1.86;100.00
3122;BME280;1571;52.524;14.104;2023-02-15T09:47:21;102276.06;;;2.09;100.00
3122;BME280;1571;52.524;14.104;2023-02-15T09:50:02;102278.63;;;2.31;100.00
3122;BME280;1571;52.524;14.104;2023-02-15T09:52:52;102268.06;;;2.47;100.00
3122;BME280;1571;52.524;14.104;2023-02-15T09:55:36;102281.22;;;2.40;100.00
3122;BME280;1571;52.524;14.104;2023-02-15T09:58:12;102271.59;;;2.48;100.00
3122;BME280;1571;52.524;14.104;2023-02-15T10:00:51;102268.81;;;2.76;100.00
3122;BME280;1571;52.524;14.104;2023-02-15T10:03:35;102271.38;;;2.91;100.00
3122;BME280;1571;52.524;14.104;2023-02-15T10:06:19;102273.09;;;2.92;100.00
3122;BME280;1571;52.524;14.104;2023-02-15T10:09:01;102265.09;;;3.10;100.00
3122;BME280;1571;52.524;14.104;2023-02-15T10:11:41;102266.81;;;3.18;100.00
3122;BME280;1571;52.524;14.104;2023-02-15T10:14:29;102256.28;;;3.21;100.00
3122;BME280;1571;52.524;14.104;2023-02-15T10:17:13;102258.00;;;3.22;100.00
3122;BME280;1571;52.524;14.104;2023-02-15T10:19:51;102249.97;;;3.45;100.00
3122;BME280;1571;52.524;14.104;2023-02-15T10:22:31;102262.03;;;3.66;100.00
3122;BME280;1571;52.524;14.104;2023-02-15T10:25:13;102252.69;;;3.34;100.00
3122;BME280;1571;52.524;14.104;2023-02-15T10:27:47;102263.09;;;3.43;100.00
3122;BME280;1571;52.524;14.104;2023-02-15T10:30:19;102263.16;;;3.37;100.00
3122;BME280;1571;52.524;14.104;2023-02-15T10:32:59;102257.69;;;3.60;100.00
3122;BME280;1571;52.524;14.104;2023-02-15T10:35:35;102236.47;;;3.80;100.00
3122;BME280;1571;52.524;14.104;2023-02-15T10:38:14;102234.75;;;3.81;100.00
3122;BME280;1571;52.524;14.104;2023-02-15T10:40:55;102241.88;;;3.68;100.00
3122;BME280;1571;52.524;14.104;2023-02-15T10:43:51;102229.44;;;3.85;100.00
3122;BME280;1571;52.524;14.104;2023-02-15T10:46:39;102235.66;;;3.73;100.00
3122;BME280;1571;52.524;14.104;2023-02-15T10:49:23;102227.06;;;3.58;100.00
3122;BME280;1571;52.524;14.104;2023-02-15T10:52:06;102232.53;;;3.33;100.00
3122;BME280;1571;52.524;14.104;2023-02-15T10:54:40;102225.97;;;3.80;100.00
3122;BME280;1571;52.524;14.104;2023-02-15T10:57:18;102213.44;;;4.05;100.00
3122;BME280;1571;52.524;14.104;2023-02-15T11:00:05;102215.38;;;3.89;100.00
3122;BME280;1571;52.524;14.104;2023-02-15T11:02:46;102209.13;;;3.98;100.00
3122;BME280;1571;52.524;14.104;2023-02-15T11:05:37;102200.28;;;4.07;100.00
3122;BME280;1571;52.524;14.104;2023-02-15T11:08:08;102196.00;;;3.98;100.00
3122;BME280;1571;52.524;14.104;2023-02-15T11:10:39;102210.09;;;3.92;100.00
3122;BME280;1571;52.524;14.104;2023-02-15T11:13:13;102207.81;;;3.59;100.00
3122;BME280;1571;52.524;14.104;2023-02-15T11:15:47;102206.19;;;3.45;100.00
3122;BME280;1571;52.524;14.104;2023-02-15T11:18:22;102196.59;;;3.41;100.00
3122;BME280;1571;52.524;14.104;2023-02-15T11:20:54;102196.22;;;3.78;100.00
3122;BME280;1571;52.524;14.104;2023-02-15T11:23:25;102196.22;;;3.81;100.00
3122;BME280;1571;52.524;14.104;2023-02-15T11:25:56;102186.16;;;4.17;100.00
3122;BME280;1571;52.524;14.104;2023-02-15T11:28:30;102187.47;;;4.50;100.00
3122;BME280;1571;52.524;14.104;2023-02-15T11:31:04;102179.91;;;4.24;99.76
3122;BME280;1571;52.524;14.104;2023-02-15T11:33:44;102188.47;;;4.38;99.48
3122;BME280;1571;52.524;14.104;2023-02-15T11:36:16;102177.53;;;4.69;98.75
3122;BME280;1571;52.524;14.104;2023-02-15T11:38:49;102174.97;;;4.65;98.06
3122;BME280;1571;52.524;14.104;2023-02-15T11:41:20;102180.66;;;4.93;96.85
3122;BME280;1571;52.524;14.104;2023-02-15T11:43:55;102175.44;;;4.91;96.48
3122;BME280;1571;52.524;14.104;2023-02-15T11:46:26;102173.53;;;5.01;96.17
3122;BME280;1571;52.524;14.104;2023-02-15T11:48:55;102165.41;;;5.13;96.04
3122;BME280;1571;52.524;14.104;2023-02-15T11:51:26;102155.69;;;5.18;95.84
3122;BME280;1571;52.524;14.104;2023-02-15T11:53:56;102150.09;;;5.37;94.91
3122;BME280;1571;52.524;14.104;2023-02-15T11:56:25;102148.84;;;5.56;93.93
3122;BME280;1571;52.524;14.104;2023-02-15T11:58:57;102141.38;;;5.78;93.16
3122;BME280;1571;52.524;14.104;2023-02-15T12:01:30;102131.72;;;5.79;92.44
3122;BME280;1571;52.524;14.104;2023-02-15T12:04:04;102129.56;;;5.99;91.61
3122;BME280;1571;52.524;14.104;2023-02-15T12:06:35;102124.50;;;5.87;90.88
3122;BME280;1571;52.524;14.104;2023-02-15T12:09:13;102135.50;;;6.09;90.56
3122;BME280;1571;52.524;14.104;2023-02-15T12:11:49;102128.84;;;6.33;89.62
3122;BME280;1571;52.524;14.104;2023-02-15T12:14:17;102121.69;;;6.38;88.86
3122;BME280;1571;52.524;14.104;2023-02-15T12:16:50;102128.19;;;6.61;88.39
3122;BME280;1571;52.524;14.104;2023-02-15T12:19:27;102127.00;;;6.74;87.33
3122;BME280;1571;52.524;14.104;2023-02-15T12:21:57;102118.44;;;6.64;86.90
3122;BME280;1571;52.524;14.104;2023-02-15T12:24:28;102132.53;;;6.63;87.14
3122;BME280;1571;52.524;14.104;2023-02-15T12:27:00;102125.63;;;6.58;86.97
3122;BME280;1571;52.524;14.104;2023-02-15T12:29:31;102122.00;;;6.62;87.13
3122;BME280;1571;52.524;14.104;2023-02-15T12:32:04;102128.88;;;6.69;86.28
3122;BME280;1571;52.524;14.104;2023-02-15T12:34:37;102120.28;;;6.61;86.15
3122;BME280;1571;52.524;14.104;2023-02-15T12:37:14;102116.94;;;6.88;85.96
3122;BME280;1571;52.524;14.104;2023-02-15T12:39:52;102118.34;;;7.03;85.61
3122;BME280;1571;52.524;14.104;2023-02-15T12:42:21;102116.09;;;7.22;85.13
3122;BME280;1571;52.524;14.104;2023-02-15T12:44:56;102115.25;;;7.20;84.93
3122;BME280;1571;52.524;14.104;2023-02-15T12:47:27;102110.63;;;7.30;84.54
3122;BME280;1571;52.524;14.104;2023-02-15T12:50:13;102115.41;;;7.47;83.90
3122;BME280;1571;52.524;14.104;2023-02-15T12:52:45;102101.31;;;7.48;82.90
3122;BME280;1571;52.524;14.104;2023-02-15T12:55:22;102103.03;;;7.49;82.82
3122;BME280;1571;52.524;14.104;2023-02-15T12:58:05;102102.44;;;7.70;82.01
3122;BME280;1571;52.524;14.104;2023-02-15T13:00:33;102090.91;;;7.73;81.49
3122;BME280;1571;52.524;14.104;2023-02-15T13:03:03;102097.22;;;7.67;81.97
3122;BME280;1571;52.524;14.104;2023-02-15T13:05:35;102098.31;;;7.60;82.18
3122;BME280;1571;52.524;14.104;2023-02-15T13:08:11;102095.84;;;7.54;82.39
3122;BME280;1571;52.524;14.104;2023-02-15T13:10:42;102093.69;;;7.68;82.58
3122;BME280;1571;52.524;14.104;2023-02-15T13:13:14;102077.38;;;7.84;82.39
3122;BME280;1571;52.524;14.104;2023-02-15T13:15:50;102075.94;;;7.72;82.49
3122;BME280;1571;52.524;14.104;2023-02-15T13:18:28;102075.34;;;7.92;82.32
3122;BME280;1571;52.524;14.104;2023-02-15T13:21:04;102067.53;;;7.89;81.63
3122;BME280;1571;52.524;14.104;2023-02-15T13:23:34;102066.66;;;7.88;81.45
3122;BME280;1571;52.524;14.104;2023-02-15T13:26:08;102073.78;;;7.86;80.78
3122;BME280;1571;52.524;14.104;2023-02-15T13:28:41;102063.06;;;7.91;80.51